Time;durP1;ratioP1;P1;durP2;ratioP2;P2;SDS_P1;SDS_P2;PMS_P1;PMS_P2;Temp;Humidity;BMP_temperature;BMP_pressure;BME280_temperature;BME280_humidity;BME280_pressure;Samples;Min_cycle;Max_cycle;Signal;HPM_P1;HPM_P2
2023/10/19 00:01:56;;;;;;;14.87;13.50;;;;;;;10.79;100.00;95271.47;5078057;28;20248;-57
2023/10/19 00:04:22;;;;;;;15.20;13.80;;;;;;;10.78;100.00;95276.94;5078432;28;20207;-57
2023/10/19 00:06:48;;;;;;;16.03;14.07;;;;;;;10.74;100.00;95265.91;5079340;28;20247;-57
2023/10/19 00:09:16;;;;;;;15.63;14.03;;;;;;;10.72;100.00;95267.91;5081296;28;20210;-57
2023/10/19 00:11:42;;;;;;;14.57;13.07;;;;;;;10.75;100.00;95272.00;5079986;28;20428;-58
2023/10/19 00:14:15;;;;;;;15.70;14.07;;;;;;;10.73;100.00;95266.91;5078977;28;20206;-56
2023/10/19 00:16:50;;;;;;;15.37;13.77;;;;;;;10.72;100.00;95267.91;5078750;28;20618;-57
2023/10/19 00:19:19;;;;;;;15.90;14.10;;;;;;;10.72;100.00;95264.44;5078783;28;20574;-56
2023/10/19 00:21:51;;;;;;;16.37;13.90;;;;;;;10.68;100.00;95261.31;5076763;28;20230;-57
2023/10/19 00:24:18;;;;;;;15.33;13.93;;;;;;;10.72;100.00;95259.97;5076868;28;20706;-56
2023/10/19 00:26:45;;;;;;;15.27;13.87;;;;;;;10.76;100.00;95255.97;5078042;28;20225;-57
2023/10/19 00:29:29;;;;;;;15.43;13.93;;;;;;;10.74;100.00;95254.50;5077718;28;20198;-57
2023/10/19 00:31:59;;;;;;;19.13;13.60;;;;;;;10.69;100.00;95262.16;5078004;28;20635;-58
2023/10/19 00:34:26;;;;;;;15.57;14.13;;;;;;;10.65;100.00;95264.31;5077558;28;20198;-58
2023/10/19 00:36:52;;;;;;;14.87;13.40;;;;;;;10.65;100.00;95256.41;5077700;28;20302;-56
2023/10/19 00:39:21;;;;;;;15.13;13.80;;;;;;;10.66;100.00;95247.47;5077454;28;20205;-57
2023/10/19 00:41:48;;;;;;;15.03;13.70;;;;;;;10.71;100.00;95250.38;5076678;28;20270;-57
2023/10/19 00:44:16;;;;;;;15.57;14.07;;;;;;;10.70;100.00;95248.75;5076762;28;20237;-56
2023/10/19 00:46:48;;;;;;;15.03;13.60;;;;;;;10.68;100.00;95248.09;5076768;28;20692;-57
2023/10/19 00:49:17;;;;;;;15.73;14.13;;;;;;;10.67;100.00;95238.53;5077041;28;20218;-58
2023/10/19 00:51:54;;;;;;;15.30;13.77;;;;;;;10.67;100.00;95241.16;5076540;28;20684;-57
2023/10/19 00:54:31;;;;;;;16.00;14.33;;;;;;;10.68;100.00;95237.53;5067852;28;20642;-57
2023/10/19 00:57:03;;;;;;;14.93;13.43;;;;;;;10.67;100.00;95238.53;5063602;28;20197;-58
2023/10/19 00:59:34;;;;;;;15.77;14.30;;;;;;;10.65;100.00;95234.41;5063947;28;20195;-56
2023/10/19 01:02:16;;;;;;;16.57;14.70;;;;;;;10.67;100.00;95232.41;5064445;28;20207;-57
2023/10/19 01:04:46;;;;;;;15.70;14.17;;;;;;;10.64;100.00;95233.59;5063800;28;20190;-57
2023/10/19 01:07:15;;;;;;;14.77;13.37;;;;;;;10.66;100.00;95230.78;5063671;28;20223;-57
2023/10/19 01:09:43;;;;;;;14.73;13.30;;;;;;;10.61;100.00;95228.66;5064475;28;20298;-58
2023/10/19 01:12:25;;;;;;;15.00;13.60;;;;;;;10.53;100.00;95223.44;5064006;28;20212;-57
2023/10/19 01:15:12;;;;;;;13.70;12.40;;;;;;;10.52;100.00;95213.88;5063782;28;20337;-56
2023/10/19 01:17:39;;;;;;;15.70;13.67;;;;;;;10.53;100.00;95220.78;5063953;28;20237;-58
2023/10/19 01:20:19;;;;;;;14.60;13.20;;;;;;;10.51;100.00;95206.94;5063730;28;20328;-56
2023/10/19 01:23:06;;;;;;;15.10;13.63;;;;;;;10.52;100.00;95218.34;5064057;28;20254;-58
2023/10/19 01:25:34;;;;;;;14.17;12.87;;;;;;;10.54;100.00;95214.53;5064363;28;20207;-57
2023/10/19 01:28:08;;;;;;;15.20;13.70;;;;;;;10.52;100.00;95202.50;5064269;28;20206;-58
2023/10/19 01:30:36;;;;;;;15.60;13.93;;;;;;;10.53;100.00;95210.22;5064985;28;20248;-58
2023/10/19 01:33:03;;;;;;;14.13;12.83;;;;;;;10.59;100.00;95204.25;5064449;28;20234;-58
2023/10/19 01:36:10;;;;;;;14.97;13.47;;;;;;;10.60;100.00;95211.16;5064458;28;20307;-57
2023/10/19 01:38:18;;;;;;;15.43;13.93;;;;;;;10.60;100.00;95200.59;5064378;28;20256;-57
2023/10/19 01:40:48;;;;;;;14.70;13.23;;;;;;;10.61;100.00;95204.06;5063406;28;20653;-58
2023/10/19 01:43:20;;;;;;;15.53;14.03;;;;;;;10.61;100.00;95196.94;5063335;28;20300;-57
2023/10/19 01:45:46;;;;;;;14.63;12.73;;;;;;;10.66;100.00;95199.88;5064344;28;20705;-57
2023/10/19 01:48:12;;;;;;;14.93;13.43;;;;;;;10.69;100.00;95186.31;5063943;28;20213;-58
2023/10/19 01:50:41;;;;;;;15.10;13.63;;;;;;;10.69;100.00;95175.75;5063111;28;20203;-56
2023/10/19 01:53:15;;;;;;;15.47;13.97;;;;;;;10.69;100.00;95164.34;5063456;28;20217;-58
2023/10/19 01:55:43;;;;;;;15.33;13.93;;;;;;;10.70;100.00;95164.13;5063587;28;20207;-57
2023/10/19 01:58:09;;;;;;;15.07;13.57;;;;;;;10.72;100.00;95177.19;5063053;28;20198;-57
2023/10/19 02:00:37;;;;;;;15.87;14.27;;;;;;;10.75;100.00;95171.53;5063527;28;20206;-58
2023/10/19 02:03:07;;;;;;;15.17;13.67;;;;;;;10.76;100.00;95181.94;5062794;28;20257;-58
2023/10/19 02:05:39;;;;;;;15.87;14.30;;;;;;;10.72;100.00;95174.53;5062316;28;20219;-58
2023/10/19 02:08:07;;;;;;;14.90;13.40;;;;;;;10.73;100.00;95160.34;5063572;28;20276;-58
2023/10/19 02:10:34;;;;;;;15.77;14.27;;;;;;;10.72;100.00;95146.28;5062893;28;20204;-58
2023/10/19 02:13:06;;;;;;;15.67;14.17;;;;;;;10.78;100.00;95129.69;5062525;28;20295;-57
2023/10/19 02:15:32;;;;;;;16.10;14.47;;;;;;;10.77;100.00;95128.03;5062855;28;20252;-57
2023/10/19 02:18:01;;;;;;;15.20;13.80;;;;;;;10.80;100.00;95122.41;5063069;28;20207;-57
2023/10/19 02:20:27;;;;;;;16.30;14.23;;;;;;;10.80;100.00;95130.34;5063080;28;20249;-55
2023/10/19 02:22:54;;;;;;;14.93;13.53;;;;;;;10.82;100.00;95157.41;5064236;28;20589;-57
2023/10/19 02:25:20;;;;;;;17.77;14.40;;;;;;;10.84;100.00;95168.63;5062799;28;20293;-57
2023/10/19 02:27:47;;;;;;;15.57;14.13;;;;;;;10.76;100.00;95147.56;5062949;28;20207;-58
2023/10/19 02:30:17;;;;;;;17.23;14.47;;;;;;;10.76;100.00;95152.88;5063264;28;20198;-58
2023/10/19 02:32:44;;;;;;;16.37;14.77;;;;;;;10.78;100.00;95148.22;5063510;28;20294;-57
2023/10/19 02:35:10;;;;;;;16.73;14.80;;;;;;;10.76;100.00;95144.94;5062187;28;20277;-55
2023/10/19 02:37:38;;;;;;;18.27;14.00;;;;;;;10.78;100.00;95140.28;5063030;28;20206;-58
2023/10/19 02:40:12;;;;;;;16.07;14.50;;;;;;;10.81;100.00;95131.16;5062403;28;20199;-57
2023/10/19 02:42:38;;;;;;;16.80;15.13;;;;;;;10.81;100.00;95150.47;5062569;28;20267;-57
2023/10/19 02:45:06;;;;;;;16.13;14.53;;;;;;;10.82;100.00;95144.19;5062277;28;20747;-56
2023/10/19 02:47:32;;;;;;;15.83;14.27;;;;;;;10.83;100.00;95143.22;5062064;28;20202;-56
2023/10/19 02:49:59;;;;;;;16.53;14.93;;;;;;;10.84;100.00;95147.47;5061968;28;20206;-56
2023/10/19 02:52:25;;;;;;;14.73;13.23;;;;;;;10.89;100.00;95147.75;5063074;28;20290;-58
2023/10/19 02:54:55;;;;;;;17.40;14.43;;;;;;;10.92;100.00;95136.00;5061440;28;20289;-56
2023/10/19 02:57:22;;;;;;;15.10;13.60;;;;;;;10.94;100.00;95134.00;5064816;28;20203;-56
2023/10/19 02:59:49;;;;;;;14.67;13.27;;;;;;;10.96;100.00;95138.09;5065891;28;20213;-57
2023/10/19 03:02:17;;;;;;;15.30;13.80;;;;;;;10.95;100.00;95128.53;5063935;28;20211;-56
2023/10/19 03:04:45;;;;;;;15.83;14.30;;;;;;;10.95;100.00;95119.75;5062824;28;20207;-58
2023/10/19 03:07:12;;;;;;;15.27;13.77;;;;;;;10.96;100.00;95122.22;5061794;28;20207;-56
2023/10/19 03:09:39;;;;;;;15.77;14.27;;;;;;;10.98;100.00;95120.22;5061940;28;20229;-57
2023/10/19 03:12:10;;;;;;;16.23;14.63;;;;;;;10.97;100.00;95118.59;5061760;28;20205;-58
2023/10/19 03:14:37;;;;;;;15.90;14.30;;;;;;;10.95;100.00;95119.75;5061924;28;20199;-57
2023/10/19 03:17:04;;;;;;;18.33;14.27;;;;;;;10.96;100.00;95122.22;5060987;28;20291;-58
2023/10/19 03:19:30;;;;;;;14.87;13.37;;;;;;;10.97;100.00;95123.88;5065058;28;20217;-57
2023/10/19 03:22:00;;;;;;;16.50;14.80;;;;;;;10.97;100.00;95123.06;5065681;28;20214;-57
2023/10/19 03:24:42;;;;;;;15.43;13.83;;;;;;;10.97;100.00;95113.31;5062764;28;20218;-57
2023/10/19 03:27:12;;;;;;;15.27;13.27;;;;;;;10.99;100.00;95111.28;5061709;28;20264;-58
2023/10/19 03:29:39;;;;;;;15.23;13.80;;;;;;;11.00;100.00;95106.81;5061653;28;20297;-57
2023/10/19 03:32:06;;;;;;;16.00;14.50;;;;;;;10.99;100.00;95106.00;5062528;28;20206;-58
2023/10/19 03:34:33;;;;;;;16.23;14.57;;;;;;;11.01;100.00;95103.19;5061982;28;20195;-56
2023/10/19 03:37:05;;;;;;;15.43;13.83;;;;;;;11.02;100.00;95090.78;5061151;28;20207;-57
2023/10/19 03:39:34;;;;;;;14.97;13.57;;;;;;;11.01;100.00;95091.78;5061861;28;21469;-58
2023/10/19 03:42:01;;;;;;;14.70;13.27;;;;;;;11.01;100.00;95086.47;5061076;28;20234;-57
2023/10/19 03:44:35;;;;;;;14.90;13.50;;;;;;;11.03;100.00;95084.47;5061421;28;20215;-56
2023/10/19 03:47:04;;;;;;;15.97;14.13;;;;;;;11.02;100.00;95077.56;5061640;28;20690;-57
2023/10/19 03:49:36;;;;;;;15.17;13.67;;;;;;;11.03;100.00;95084.47;5060952;28;20230;-57
2023/10/19 03:52:19;;;;;;;14.30;13.00;;;;;;;11.03;100.00;95080.00;5061365;28;20213;-56
2023/10/19 03:54:47;;;;;;;14.63;13.10;;;;;;;11.03;100.00;95080.00;5061617;28;20206;-56
2023/10/19 03:57:19;;;;;;;15.33;13.83;;;;;;;11.04;100.00;95084.28;5061246;28;20234;-58
2023/10/19 03:59:46;;;;;;;15.70;14.20;;;;;;;11.06;100.00;95078.81;5061952;28;20519;-58
2023/10/19 04:02:14;;;;;;;14.43;13.07;;;;;;;11.04;100.00;95078.19;5061737;28;20210;-56
2023/10/19 04:04:43;;;;;;;14.80;13.47;;;;;;;11.08;100.00;95079.47;5060908;28;20313;-56
2023/10/19 04:07:18;;;;;;;14.03;12.63;;;;;;;11.07;100.00;95067.22;5061581;28;20198;-58
2023/10/19 04:09:58;;;;;;;14.53;13.03;;;;;;;11.07;100.00;95064.59;5062184;28;20195;-57
2023/10/19 04:12:25;;;;;;;15.23;13.73;;;;;;;11.07;100.00;95065.41;5061301;28;20207;-56
2023/10/19 04:14:52;;;;;;;15.37;13.87;;;;;;;11.08;100.00;95066.22;5062530;28;20301;-57
2023/10/19 04:17:20;;;;;;;15.17;13.77;;;;;;;11.06;100.00;95057.66;5061912;28;20199;-58
2023/10/19 04:19:48;;;;;;;14.57;13.17;;;;;;;11.09;100.00;95062.59;5061836;28;20300;-58
2023/10/19 04:22:22;;;;;;;14.77;13.37;;;;;;;11.09;100.00;95059.94;5061410;28;20562;-58
2023/10/19 04:24:49;;;;;;;14.57;13.17;;;;;;;11.09;100.00;95063.38;5061567;28;20238;-58
2023/10/19 04:27:15;;;;;;;14.77;13.37;;;;;;;11.08;100.00;95061.75;5061065;28;20195;-58
2023/10/19 04:29:45;;;;;;;14.97;13.43;;;;;;;11.08;100.00;95055.66;5064013;28;20207;-57
2023/10/19 04:32:14;;;;;;;15.10;13.50;;;;;;;11.10;100.00;95054.44;5065394;28;20216;-58
2023/10/19 04:34:40;;;;;;;14.60;13.20;;;;;;;11.12;100.00;95043.69;5065820;28;20194;-58
2023/10/19 04:37:08;;;;;;;15.87;14.33;;;;;;;11.12;100.00;95039.22;5064430;28;20775;-57
2023/10/19 04:39:36;;;;;;;16.63;14.93;;;;;;;11.12;100.00;95036.59;5066174;28;20210;-56
2023/10/19 04:42:02;;;;;;;15.50;14.00;;;;;;;11.15;100.00;95041.50;5064802;28;20233;-57
2023/10/19 04:44:30;;;;;;;14.77;13.27;;;;;;;11.14;100.00;95037.22;5064953;28;20221;-58
2023/10/19 04:46:57;;;;;;;15.43;13.93;;;;;;;11.15;100.00;95035.38;5064967;28;20211;-57
2023/10/19 04:49:23;;;;;;;15.37;13.77;;;;;;;11.14;100.00;95034.56;5065004;28;20202;-58
2023/10/19 04:51:50;;;;;;;14.40;12.90;;;;;;;11.15;100.00;95024.81;5064542;28;20203;-58
2023/10/19 04:54:17;;;;;;;15.60;14.10;;;;;;;11.17;100.00;95015.66;5066371;28;20203;-58
2023/10/19 04:56:45;;;;;;;15.53;14.13;;;;;;;11.18;100.00;95013.84;5064014;28;20515;-57
2023/10/19 04:59:11;;;;;;;16.20;14.50;;;;;;;11.17;100.00;95026.25;5066740;28;20551;-58
2023/10/19 05:01:40;;;;;;;15.53;14.03;;;;;;;11.18;100.00;95017.31;5065234;28;20643;-57
2023/10/19 05:04:06;;;;;;;16.13;14.53;;;;;;;11.17;100.00;95018.31;5066369;28;20242;-57
2023/10/19 05:06:33;;;;;;;15.83;14.33;;;;;;;11.17;100.00;95018.31;5074187;28;20207;-58
2023/10/19 05:08:59;;;;;;;14.67;13.33;;;;;;;11.19;100.00;95004.91;5076892;28;20198;-57
2023/10/19 05:11:27;;;;;;;15.03;13.43;;;;;;;11.16;100.00;94998.16;5075144;28;20221;-57
2023/10/19 05:13:54;;;;;;;15.77;13.73;;;;;;;11.19;100.00;94994.34;5071822;28;20202;-57
2023/10/19 05:16:21;;;;;;;15.13;13.73;;;;;;;11.18;100.00;94995.31;5075533;28;20195;-56
2023/10/19 05:18:47;;;;;;;16.30;14.47;;;;;;;11.18;100.00;94990.88;5070752;28;20273;-57
2023/10/19 05:21:14;;;;;;;15.83;14.33;;;;;;;11.16;100.00;94990.22;5070864;28;20198;-56
2023/10/19 05:23:40;;;;;;;15.80;14.13;;;;;;;11.16;100.00;94986.78;5069708;28;20642;-58
2023/10/19 05:26:07;;;;;;;15.77;14.27;;;;;;;11.20;100.00;94972.13;5064926;28;20285;-58
2023/10/19 05:28:33;;;;;;;15.97;14.43;;;;;;;11.21;100.00;94974.59;5064905;28;20203;-58
2023/10/19 05:31:01;;;;;;;16.60;15.00;;;;;;;11.24;100.00;94973.41;5064957;28;20199;-57
2023/10/19 05:33:29;;;;;;;16.97;15.00;;;;;;;11.21;100.00;94971.13;5063361;28;20234;-58
2023/10/19 05:35:55;;;;;;;16.13;14.53;;;;;;;11.24;100.00;94970.75;5063873;28;20203;-57
2023/10/19 05:38:22;;;;;;;16.97;14.63;;;;;;;11.26;100.00;94971.41;5063441;28;20616;-56
2023/10/19 05:40:49;;;;;;;16.63;14.93;;;;;;;11.29;100.00;94969.22;5064114;28;20202;-58
2023/10/19 05:43:17;;;;;;;15.93;14.40;;;;;;;11.29;100.00;94961.28;5063214;28;20326;-58
2023/10/19 05:45:43;;;;;;;15.03;13.53;;;;;;;11.29;100.00;94963.91;5065000;28;20213;-57
2023/10/19 05:48:12;;;;;;;15.47;13.90;;;;;;;11.30;100.00;94970.03;5065004;28;20207;-57
2023/10/19 05:50:38;;;;;;;15.33;13.77;;;;;;;11.29;100.00;94958.63;5064434;28;20673;-59
2023/10/19 05:53:05;;;;;;;15.60;14.10;;;;;;;11.32;100.00;94954.78;5062967;28;20545;-58
2023/10/19 05:55:33;;;;;;;15.60;14.03;;;;;;;11.33;100.00;94959.06;5062619;28;20206;-57
2023/10/19 05:58:00;;;;;;;15.80;14.13;;;;;;;11.32;100.00;94960.06;5062910;28;20651;-58
2023/10/19 06:00:26;;;;;;;16.23;14.63;;;;;;;11.32;100.00;94955.59;5063127;28;20231;-59
2023/10/19 06:02:53;;;;;;;15.80;14.20;;;;;;;11.36;100.00;94958.69;5063342;28;20222;-58
2023/10/19 06:05:21;;;;;;;16.40;14.80;;;;;;;11.36;100.00;94958.69;5062787;28;20223;-58
2023/10/19 06:07:49;;;;;;;15.23;13.80;;;;;;;11.39;100.00;94968.88;5063158;28;20210;-57
2023/10/19 06:10:17;;;;;;;14.50;13.10;;;;;;;11.42;100.00;94958.75;5062848;28;20211;-58
2023/10/19 06:12:44;;;;;;;15.97;14.37;;;;;;;11.44;100.00;94955.91;5063065;28;20202;-58
2023/10/19 06:15:11;;;;;;;16.50;14.80;;;;;;;11.47;100.00;94951.06;5062994;28;20198;-58
2023/10/19 06:17:38;;;;;;;22.77;19.30;;;;;;;11.51;100.00;94956.81;5062329;28;20618;-58
2023/10/19 06:20:07;;;;;;;20.10;17.63;;;;;;;11.56;100.00;94954.38;5061997;28;20206;-59
2023/10/19 06:22:35;;;;;;;18.30;16.37;;;;;;;11.59;100.00;94964.59;5063023;28;20344;-59
2023/10/19 06:25:02;;;;;;;17.67;15.83;;;;;;;11.63;100.00;94957.09;5064052;28;20242;-58
2023/10/19 06:27:29;;;;;;;16.50;14.90;;;;;;;11.65;100.00;94958.56;5064053;28;20252;-56
2023/10/19 06:29:56;;;;;;;16.63;15.00;;;;;;;11.67;100.00;94955.69;5064112;28;20223;-58
2023/10/19 06:32:22;;;;;;;15.20;13.77;;;;;;;11.70;100.00;94958.78;5064401;28;20199;-57
2023/10/19 06:34:50;;;;;;;16.43;14.57;;;;;;;11.72;100.00;94948.88;5063839;28;20202;-58
2023/10/19 06:37:16;;;;;;;16.97;15.00;;;;;;;11.76;100.00;94947.44;5063600;28;20282;-58
2023/10/19 06:39:44;;;;;;;16.40;14.80;;;;;;;11.78;100.00;94948.09;5062945;28;20309;-57
2023/10/19 06:42:13;;;;;;;15.63;14.03;;;;;;;11.82;100.00;94949.34;5061811;28;20233;-57
2023/10/19 06:44:41;;;;;;;16.60;14.63;;;;;;;11.84;100.00;94941.22;5061489;28;20253;-58
2023/10/19 06:47:07;;;;;;;16.20;14.47;;;;;;;11.86;100.00;94950.63;5062611;28;20209;-59
2023/10/19 06:49:34;;;;;;;16.50;14.80;;;;;;;11.91;100.00;94947.38;5061577;28;20198;-58
2023/10/19 06:52:04;;;;;;;17.83;15.97;;;;;;;11.91;100.00;94950.03;5061206;28;20202;-58
2023/10/19 06:54:31;;;;;;;18.17;16.27;;;;;;;11.93;100.00;94948.84;5061904;28;20289;-58
2023/10/19 06:56:58;;;;;;;16.67;14.40;;;;;;;11.96;100.00;94940.50;5061871;28;20206;-57
2023/10/19 06:59:25;;;;;;;17.27;15.67;;;;;;;12.01;100.00;94945.19;5061809;28;20539;-56
2023/10/19 07:01:51;;;;;;;17.67;15.97;;;;;;;12.00;100.00;94940.13;5062443;28;20233;-57
2023/10/19 07:04:18;;;;;;;17.27;15.53;;;;;;;12.04;100.00;94930.78;5061910;28;20222;-58
2023/10/19 07:06:44;;;;;;;18.67;15.83;;;;;;;12.09;100.00;94933.63;5062273;28;20202;-58
2023/10/19 07:09:11;;;;;;;16.43;14.90;;;;;;;12.13;100.00;94929.59;5062356;28;20207;-57
2023/10/19 07:11:37;;;;;;;17.43;15.67;;;;;;;12.16;100.00;94939.81;5061904;28;20225;-58
2023/10/19 07:14:07;;;;;;;19.70;16.13;;;;;;;12.19;100.00;94950.00;5061775;28;20195;-58
2023/10/19 07:16:34;;;;;;;21.33;16.03;;;;;;;12.20;100.00;94939.22;5062244;28;20226;-59
2023/10/19 07:19:01;;;;;;;19.07;17.07;;;;;;;12.20;100.00;94941.88;5062113;28;20203;-58
2023/10/19 07:21:31;;;;;;;18.03;16.13;;;;;;;12.23;100.00;94945.97;5061981;28;20198;-58
2023/10/19 07:24:01;;;;;;;18.17;16.40;;;;;;;12.26;100.00;94940.28;5061679;28;20210;-58
2023/10/19 07:26:33;;;;;;;18.27;15.97;;;;;;;12.29;100.00;94939.91;5061739;28;20599;-58
2023/10/19 07:29:00;;;;;;;16.60;15.00;;;;;;;12.30;100.00;94936.22;5061924;28;20261;-59
2023/10/19 07:31:30;;;;;;;21.47;16.33;;;;;;;12.29;100.00;94932.75;5062784;28;20203;-57
2023/10/19 07:33:58;;;;;;;18.80;16.80;;;;;;;12.31;100.00;94935.22;5061700;28;20297;-58
2023/10/19 07:36:25;;;;;;;18.67;16.50;;;;;;;12.31;100.00;94927.25;5061784;28;20207;-58
2023/10/19 07:38:51;;;;;;;18.13;16.33;;;;;;;12.32;100.00;94919.13;5073465;28;20230;-58
2023/10/19 07:41:18;;;;;;;17.50;15.77;;;;;;;12.36;100.00;94919.56;5081172;28;20683;-58
2023/10/19 07:43:45;;;;;;;18.67;16.43;;;;;;;12.39;100.00;94919.16;5076949;28;20213;-57
2023/10/19 07:46:12;;;;;;;17.90;16.00;;;;;;;12.41;100.00;94927.72;5068315;28;20605;-57
2023/10/19 07:48:43;;;;;;;17.70;15.90;;;;;;;12.46;100.00;94930.63;5061856;28;20210;-58
2023/10/19 07:51:11;;;;;;;19.07;16.53;;;;;;;12.48;100.00;94920.63;5060812;28;20203;-58
2023/10/19 07:53:37;;;;;;;19.23;17.30;;;;;;;12.53;100.00;94922.69;5061216;28;20214;-58
2023/10/19 07:56:04;;;;;;;22.90;18.87;;;;;;;12.56;100.00;94920.47;5060856;28;20206;-58
2023/10/19 07:58:31;;;;;;;22.57;18.70;;;;;;;12.63;100.00;94920.50;5061020;28;20207;-57
2023/10/19 08:00:58;;;;;;;18.87;16.97;;;;;;;12.63;100.00;94910.72;5061317;28;20218;-57
2023/10/19 08:03:25;;;;;;;18.53;16.67;;;;;;;12.71;100.00;94905.25;5061405;28;20225;-58
2023/10/19 08:05:53;;;;;;;19.07;17.10;;;;;;;12.74;100.00;94899.53;5064120;28;20244;-58
2023/10/19 08:08:20;;;;;;;19.23;17.37;;;;;;;12.82;100.00;94898.53;5064885;28;20211;-58
2023/10/19 08:10:47;;;;;;;19.93;17.90;;;;;;;12.84;100.00;94899.97;5064527;28;20203;-58
2023/10/19 08:13:13;;;;;;;19.30;17.38;;;;;;;12.92;100.00;94894.50;5064997;28;20293;-58
2023/10/19 08:15:40;;;;;;;18.15;16.42;;;;;;;12.97;100.00;94886.75;5064458;28;20628;-59
2023/10/19 08:18:06;;;;;;;19.02;17.13;;;;;;;13.01;100.00;94883.69;5064355;28;20762;-58
2023/10/19 08:20:37;;;;;;;18.37;16.47;;;;;;;13.05;100.00;94887.56;5064458;28;20207;-58
2023/10/19 08:23:05;;;;;;;19.50;17.50;;;;;;;13.10;100.00;94890.50;5065034;28;20684;-57
2023/10/19 08:25:33;;;;;;;20.57;17.73;;;;;;;13.04;100.00;94889.41;5064558;28;20219;-57
2023/10/19 08:28:01;;;;;;;19.63;17.83;;;;;;;13.08;100.00;94889.81;5065009;28;20256;-58
2023/10/19 08:30:28;;;;;;;19.75;17.40;;;;;;;13.14;100.00;94881.09;5064786;28;20542;-57
2023/10/19 08:32:56;;;;;;;19.35;16.33;;;;;;;13.22;100.00;94879.06;5064449;28;20264;-58
2023/10/19 08:35:25;;;;;;;18.67;16.95;;;;;;;13.26;100.00;94884.78;5064393;28;20207;-58
2023/10/19 08:37:52;;;;;;;19.03;17.23;;;;;;;13.30;100.00;94892.16;5063656;28;20208;-58
2023/10/19 08:40:21;;;;;;;19.60;17.70;;;;;;;13.27;100.00;94897.03;5063531;28;20218;-59
2023/10/19 08:42:48;;;;;;;19.58;17.65;;;;;;;13.32;100.00;94890.09;5064466;28;20276;-58
2023/10/19 08:45:16;;;;;;;18.98;16.98;;;;;;;13.40;100.00;94889.09;5063913;28;20659;-59
2023/10/19 08:47:47;;;;;;;20.20;18.00;;;;;;;13.45;100.00;94889.31;5063484;28;21334;-57
2023/10/19 08:50:14;;;;;;;21.92;19.75;;;;;;;13.55;100.00;94884.41;5063884;28;20631;-58
2023/10/19 08:52:42;;;;;;;20.30;18.20;;;;;;;13.64;100.00;94888.47;5064197;28;20218;-58
2023/10/19 08:55:09;;;;;;;21.42;18.63;;;;;;;13.63;100.00;94878.91;5064428;28;20296;-58
2023/10/19 08:57:38;;;;;;;20.05;17.98;;;;;;;13.71;100.00;94881.34;5064454;28;20203;-57
2023/10/19 09:00:09;;;;;;;19.63;17.70;;;;;;;13.82;100.00;94864.78;5064112;28;20195;-57
2023/10/19 09:02:36;;;;;;;19.20;17.30;;;;;;;13.81;100.00;94868.47;5064410;28;20214;-58
2023/10/19 09:05:07;;;;;;;20.00;17.40;;;;;;;13.82;100.00;94858.63;5063132;28;20231;-58
2023/10/19 09:07:34;;;;;;;19.05;17.15;;;;;;;13.81;100.00;94849.88;5063742;28;20616;-58
2023/10/19 09:10:01;;;;;;;18.63;16.70;;;;;;;13.87;100.00;94835.75;5063973;28;20241;-58
2023/10/19 09:12:27;;;;;;;18.08;16.33;;;;;;;13.91;100.00;94834.31;5063713;28;20203;-57
2023/10/19 09:14:55;;;;;;;19.27;16.80;;;;;;;14.01;100.00;94827.75;5063436;28;20195;-59
2023/10/19 09:17:29;;;;;;;19.33;16.42;;;;;;;14.14;100.00;94825.88;5063370;28;20202;-59
2023/10/19 09:19:56;;;;;;;18.92;16.50;;;;;;;14.44;100.00;94802.28;5063118;28;20202;-58
2023/10/19 09:22:23;;;;;;;18.25;16.58;;;;;;;14.59;100.00;94810.81;5063605;28;20615;-57
2023/10/19 09:24:53;;;;;;;16.30;14.65;;;;;;;14.88;100.00;94812.88;5063321;28;20234;-58
2023/10/19 09:27:20;;;;;;;18.63;16.65;;;;;;;15.08;100.00;94817.28;5062897;28;21298;-57
2023/10/19 09:29:46;;;;;;;20.23;17.08;;;;;;;15.14;100.00;94816.41;5063570;28;20207;-58
2023/10/19 09:32:14;;;;;;;17.77;15.82;;;;;;;15.05;100.00;94818.53;5062913;28;20635;-58
2023/10/19 09:34:43;;;;;;;17.42;15.73;;;;;;;15.10;100.00;94831.19;5063392;28;20210;-58
2023/10/19 09:37:10;;;;;;;17.13;15.38;;;;;;;15.16;100.00;94825.03;5062928;28;20233;-58
2023/10/19 09:39:37;;;;;;;18.33;15.52;;;;;;;15.34;100.00;94828.56;5063685;28;20305;-58
2023/10/19 09:42:10;;;;;;;17.17;15.43;;;;;;;15.53;100.00;94834.78;5063019;28;20245;-58
2023/10/19 09:44:41;;;;;;;16.85;15.25;;;;;;;15.51;100.00;94834.22;5063562;28;20211;-58
2023/10/19 09:47:12;;;;;;;15.10;13.52;;;;;;;15.71;100.00;94832.19;5065365;28;20647;-58
2023/10/19 09:49:41;;;;;;;15.55;13.95;;;;;;;15.85;100.00;94819.56;5067140;28;20659;-57
2023/10/19 09:52:09;;;;;;;15.02;13.43;;;;;;;15.83;100.00;94824.28;5064442;28;20203;-58
2023/10/19 09:54:47;;;;;;;15.13;13.63;;;;;;;16.18;100.00;94811.22;5062906;28;20640;-58
2023/10/19 09:57:17;;;;;;;15.73;14.27;;;;;;;16.61;100.00;94798.63;5063162;28;20521;-58
2023/10/19 09:59:46;;;;;;;14.55;12.77;;;;;;;17.11;100.00;94803.69;5063190;28;20211;-58
2023/10/19 10:02:14;;;;;;;15.25;13.65;;;;;;;17.37;100.00;94814.78;5063563;28;20207;-58
2023/10/19 10:04:45;;;;;;;13.70;12.32;;;;;;;18.05;100.00;94810.81;5080230;28;20218;-58
2023/10/19 10:07:11;;;;;;;13.55;12.35;;;;;;;18.39;100.00;94804.59;5084464;28;20237;-58
2023/10/19 10:09:43;;;;;;;13.15;11.95;;;;;;;18.83;100.00;94793.22;5086070;28;20189;-58
2023/10/19 10:12:21;;;;;;;11.93;10.82;;;;;;;19.24;100.00;94785.91;5065109;28;20234;-57
2023/10/19 10:15:01;;;;;;;11.63;10.43;;;;;;;19.75;100.00;94780.34;5067144;28;20202;-58
2023/10/19 10:17:28;;;;;;;10.93;9.82;;;;;;;20.19;95.43;94796.56;5067057;28;20210;-58
2023/10/19 10:20:10;;;;;;;10.95;9.95;;;;;;;21.10;92.82;94793.19;5064311;28;20210;-59
2023/10/19 10:22:36;;;;;;;11.48;10.48;;;;;;;21.11;89.71;94791.31;5063155;28;20286;-58
2023/10/19 10:25:04;;;;;;;10.85;9.73;;;;;;;21.65;89.25;94789.38;5064291;28;20234;-58
2023/10/19 10:27:31;;;;;;;9.77;8.77;;;;;;;;;;5061689;28;20210;-58
2023/10/19 10:29:59;;;;;;;11.57;9.23;;;;;;;22.57;81.67;94784.34;5062173;28;20208;-58
2023/10/19 10:32:48;;;;;;;9.10;8.13;;;;;;;23.22;79.68;94777.59;5063566;28;20560;-58
2023/10/19 10:35:55;;;;;;;9.23;8.45;;;;;;;23.26;77.87;94781.38;5061810;28;20534;-59
2023/10/19 10:38:21;;;;;;;8.88;7.93;;;;;;;23.63;77.87;94779.28;5062574;28;20190;-59
2023/10/19 10:40:49;;;;;;;8.60;7.88;;;;;;;23.23;78.75;94763.03;5062389;28;20211;-58
2023/10/19 10:43:16;;;;;;;9.30;7.47;;;;;;;22.99;76.30;94749.22;5063510;28;20227;-59
2023/10/19 10:45:43;;;;;;;7.07;6.50;;;;;;;23.23;75.91;94746.84;5061949;28;20229;-58
2023/10/19 10:48:13;;;;;;;6.18;5.13;;;;;;;23.05;76.82;94740.06;5062145;28;21548;-59
2023/10/19 10:50:41;;;;;;;5.40;4.90;;;;;;;21.70;85.25;94746.38;5063380;28;20194;-58
2023/10/19 10:53:11;;;;;;;6.30;5.57;;;;;;;21.16;88.23;94748.34;5066715;28;20209;-58
2023/10/19 10:55:37;;;;;;;6.13;5.50;;;;;;;20.36;90.85;94735.63;5063989;28;20232;-57
2023/10/19 10:58:04;;;;;;;7.45;5.88;;;;;;;20.06;96.12;94729.81;5065047;28;20210;-59
2023/10/19 11:00:33;;;;;;;5.70;5.20;;;;;;;19.84;98.34;94725.22;5063312;28;20227;-58
2023/10/19 11:03:04;;;;;;;6.43;5.72;;;;;;;20.20;99.52;94725.72;5061401;28;20211;-61
2023/10/19 11:05:33;;;;;;;5.70;5.20;;;;;;;20.76;98.52;94721.84;5061514;28;20550;-58
2023/10/19 11:08:13;;;;;;;6.70;5.07;;;;;;;21.27;93.29;94723.16;5060846;28;20215;-61
2023/10/19 11:10:42;;;;;;;6.28;5.70;;;;;;;20.60;94.03;94712.81;5061543;28;20224;-59
2023/10/19 11:13:11;;;;;;;6.40;5.72;;;;;;;20.20;96.90;94702.38;5062156;28;20297;-58
2023/10/19 11:15:39;;;;;;;7.63;5.75;;;;;;;19.63;99.04;94706.41;5061567;28;20199;-59
2023/10/19 11:18:07;;;;;;;6.35;5.75;;;;;;;19.35;100.00;94707.28;5061919;28;20210;-59
2023/10/19 11:20:35;;;;;;;7.65;6.25;;;;;;;19.10;100.00;94707.69;5061081;28;20639;-58